Terminal Aerodrome Forecast
Issued by NWS Tampa Bay Area, FL

Home | Current Version | Previous Version | Text Only | Print | Product List | Glossary On
Versions: 1 2 3 4 5 6 7 8 9 10 11 12 13 14
000
FTUS42 KTBW 242343
TAFSRQ
TAF
KSRQ 242343Z 2500/2524 29008KT P6SM FEW060 BKN250
     FM250200 02006KT P6SM SCT250
     FM250600 10007KT P6SM FEW025 BKN250
     FM251400 18010G18KT P6SM SCT025 SCT120 BKN250
     FM251800 22013G23KT P6SM SCT035 SCT250=

USA.gov is the U.S. government's official web portal to all federal, state and local government web resources and services.